Time;durP1;ratioP1;P1;durP2;ratioP2;P2;SDS_P1;SDS_P2;PMS_P1;PMS_P2;Temp;Humidity;BMP_temperature;BMP_pressure;BME280_temperature;BME280_humidity;BME280_pressure;Samples;Min_cycle;Max_cycle;Signal;HPM_P1;HPM_P2
2023/06/30 00:04:32;;;;;;;11.95;7.53;;;;;;;;;;10405846;28;20044;-87
2023/06/30 00:09:33;;;;;;;10.73;7.75;;;;;;;;;;10406570;28;20092;-85
2023/06/30 00:14:34;;;;;;;13.80;7.60;;;;;;;;;;10401500;28;20448;-86
2023/06/30 00:19:35;;;;;;;15.98;8.38;;;;;;;;;;10393015;28;20092;-86
2023/06/30 00:24:37;;;;;;;15.63;10.48;;;;;;;;;;10406180;28;20068;-86
2023/06/30 00:29:38;;;;;;;15.48;10.57;;;;;;;;;;10404003;28;20046;-86
2023/06/30 00:34:39;;;;;;;19.55;11.13;;;;;;;;;;10396079;28;20028;-85
2023/06/30 00:39:40;;;;;;;17.67;12.50;;;;;;;;;;10407552;28;20044;-87
2023/06/30 00:44:41;;;;;;;18.23;11.30;;;;;;;;;;10394752;28;20586;-86
2023/06/30 00:49:42;;;;;;;21.25;11.88;;;;;;;;;;10404799;28;20042;-88
2023/06/30 00:54:43;;;;;;;22.85;14.77;;;;;;;;;;10393042;28;20573;-85
2023/06/30 00:59:44;;;;;;;19.73;12.27;;;;;;;;;;10399201;28;20148;-85
2023/06/30 01:04:45;;;;;;;26.13;15.30;;;;;;;;;;10392723;28;20668;-86
2023/06/30 01:09:52;;;;;;;20.02;13.95;;;;;;;;;;10405709;28;20041;-86
2023/06/30 01:14:53;;;;;;;30.13;12.93;;;;;;;;;;10396622;28;20022;-86
2023/06/30 01:19:55;;;;;;;22.15;13.88;;;;;;;;;;10398328;28;20080;-85
2023/06/30 01:24:59;;;;;;;19.38;12.68;;;;;;;;;;10393063;28;20068;-85
2023/06/30 01:30:00;;;;;;;21.45;11.77;;;;;;;;;;10392893;28;20042;-85
2023/06/30 01:35:01;;;;;;;17.42;11.60;;;;;;;;;;10402971;28;20033;-85
2023/06/30 01:40:04;;;;;;;18.30;13.40;;;;;;;;;;10404954;28;20029;-86
2023/06/30 01:45:06;;;;;;;21.15;13.20;;;;;;;;;;10400055;28;20037;-87
2023/06/30 01:50:07;;;;;;;24.23;12.88;;;;;;;;;;10402316;28;20041;-86
2023/06/30 01:55:08;;;;;;;18.48;11.70;;;;;;;;;;10396322;28;20062;-86
2023/06/30 02:00:09;;;;;;;19.73;12.07;;;;;;;;;;10393853;28;20049;-86
2023/06/30 02:05:12;;;;;;;25.15;14.05;;;;;;;;;;10401814;28;20037;-85
2023/06/30 02:10:13;;;;;;;21.55;14.43;;;;;;;;;;10402180;28;20060;-86
2023/06/30 02:15:14;;;;;;;19.35;13.75;;;;;;;;;;10393814;28;20044;-87
2023/06/30 02:20:15;;;;;;;22.67;14.40;;;;;;;;;;10401925;28;20044;-85
2023/06/30 02:25:16;;;;;;;22.00;13.73;;;;;;;;;;10404380;28;20100;-86
2023/06/30 02:30:17;;;;;;;17.35;11.98;;;;;;;;;;10400206;28;20568;-85
2023/06/30 02:35:18;;;;;;;18.23;12.38;;;;;;;;;;10397468;28;20116;-85
2023/06/30 02:40:19;;;;;;;19.52;13.40;;;;;;;;;;10394922;28;20033;-87
2023/06/30 02:45:20;;;;;;;20.85;13.10;;;;;;;;;;10393469;28;20040;-86
2023/06/30 02:50:23;;;;;;;20.98;12.77;;;;;;;;;;10399133;28;20448;-86
2023/06/30 02:55:23;;;;;;;20.58;14.15;;;;;;;;;;10387707;28;20128;-85
2023/06/30 03:00:31;;;;;;;23.30;14.60;;;;;;;;;;10402135;28;20041;-86
2023/06/30 03:05:34;;;;;;;21.65;13.18;;;;;;;;;;10400086;28;20041;-86
2023/06/30 03:10:35;;;;;;;20.92;13.55;;;;;;;;;;10390483;28;20447;-86
2023/06/30 03:15:36;;;;;;;21.38;14.98;;;;;;;;;;10377764;28;21128;-85
2023/06/30 03:20:37;;;;;;;27.25;17.90;;;;;;;;;;10407034;28;20037;-86
2023/06/30 03:25:37;;;;;;;26.30;18.73;;;;;;;;;;10411599;28;20061;-85
2023/06/30 03:30:38;;;;;;;20.17;15.52;;;;;;;;;;10408225;28;20601;-86
2023/06/30 03:35:41;;;;;;;24.45;18.55;;;;;;;;;;10410556;28;20079;-85
2023/06/30 03:40:42;;;;;;;27.58;18.48;;;;;;;;;;10408358;28;20489;-85
2023/06/30 03:45:43;;;;;;;22.85;16.90;;;;;;;;;;10407276;28;20041;-86
2023/06/30 03:50:44;;;;;;;28.88;19.55;;;;;;;;;;10406883;28;20042;-86
2023/06/30 03:55:45;;;;;;;24.77;17.92;;;;;;;;;;10410567;28;20397;-86
2023/06/30 04:00:46;;;;;;;25.02;18.58;;;;;;;;;;10392469;28;20433;-86
2023/06/30 04:05:47;;;;;;;31.33;22.60;;;;;;;;;;10409248;28;20032;-85
2023/06/30 04:10:48;;;;;;;28.38;21.33;;;;;;;;;;10381040;28;20492;-86
2023/06/30 04:15:49;;;;;;;29.60;19.92;;;;;;;;;;10408815;28;20048;-88
2023/06/30 04:20:50;;;;;;;28.73;21.05;;;;;;;;;;10394025;28;20500;-88
2023/06/30 04:25:52;;;;;;;31.42;21.95;;;;;;;;;;10421711;23;20095;-87
2023/06/30 04:30:53;;;;;;;24.90;19.80;;;;;;;;;;10384778;28;20128;-87
2023/06/30 04:35:54;;;;;;;28.98;19.30;;;;;;;;;;10395527;28;20025;-88
2023/06/30 04:52:21;;;;;;;26.17;19.38;;;;;;;;;;10681585;27;20460;-80
2023/06/30 04:57:23;;;;;;;25.52;18.55;;;;;;;;;;10674198;27;20483;-81
2023/06/30 05:02:24;;;;;;;26.10;19.30;;;;;;;;;;10673812;27;20091;-80
2023/06/30 05:07:25;;;;;;;23.88;18.60;;;;;;;;;;10694178;27;20582;-80
2023/06/30 05:12:26;;;;;;;25.00;18.17;;;;;;;;;;10684446;27;20034;-81
2023/06/30 05:17:27;;;;;;;26.85;17.92;;;;;;;;;;10660117;27;20042;-81
2023/06/30 05:22:27;;;;;;;24.77;18.23;;;;;;;;;;10666029;27;20030;-81
2023/06/30 05:27:29;;;;;;;20.42;15.10;;;;;;;;;;10642349;27;20031;-80
2023/06/30 05:32:30;;;;;;;20.05;16.40;;;;;;;;;;10649472;27;20053;-80
2023/06/30 05:37:30;;;;;;;22.27;14.38;;;;;;;;;;10649334;27;20030;-80
2023/06/30 05:42:32;;;;;;;23.80;13.70;;;;;;;;;;10647720;27;20038;-81
2023/06/30 05:47:33;;;;;;;18.05;12.48;;;;;;;;;;10648425;27;20390;-80
2023/06/30 05:52:34;;;;;;;16.13;12.20;;;;;;;;;;10624763;27;20023;-80
2023/06/30 05:57:35;;;;;;;14.57;10.77;;;;;;;;;;10619936;27;20035;-80
2023/06/30 06:02:36;;;;;;;13.40;9.52;;;;;;;;;;10601768;27;20084;-81
2023/06/30 06:07:37;;;;;;;12.32;8.82;;;;;;;;;;10620053;27;20042;-81
2023/06/30 06:12:39;;;;;;;14.35;9.43;;;;;;;;;;10619648;27;20069;-80
2023/06/30 06:17:40;;;;;;;11.77;8.23;;;;;;;;;;10600634;27;20046;-81
2023/06/30 06:22:41;;;;;;;11.70;8.05;;;;;;;;;;10618804;27;20031;-81
2023/06/30 06:27:42;;;;;;;11.75;7.80;;;;;;;;;;10619183;27;20473;-80
2023/06/30 06:32:43;;;;;;;9.50;6.45;;;;;;;;;;10618579;27;20023;-79
2023/06/30 06:37:44;;;;;;;11.00;6.05;;;;;;;;;;10617950;27;20132;-80
2023/06/30 06:42:45;;;;;;;8.15;5.78;;;;;;;;;;10619054;27;20023;-81
2023/06/30 06:48:05;;;;;;;10.32;5.32;;;;;;;;;;10617549;27;20512;-80
2023/06/30 06:53:06;;;;;;;7.00;4.93;;;;;;;;;;10618100;27;20390;-81
2023/06/30 06:58:07;;;;;;;6.68;4.53;;;;;;;;;;10617266;27;20034;-80
2023/06/30 07:03:08;;;;;;;18.80;10.60;;;;;;;;;;10617479;27;20023;-81
2023/06/30 07:08:09;;;;;;;12.18;8.07;;;;;;;;;;10617274;27;20116;-80
2023/06/30 07:13:10;;;;;;;10.57;5.03;;;;;;;;;;10616798;27;20076;-81
2023/06/30 07:18:12;;;;;;;6.35;4.22;;;;;;;;;;10616892;27;20397;-81
2023/06/30 07:23:13;;;;;;;7.43;4.00;;;;;;;;;;10616171;27;20032;-81
2023/06/30 07:28:15;;;;;;;4.72;3.67;;;;;;;;;;10616821;27;20035;-81
2023/06/30 07:33:17;;;;;;;7.53;4.18;;;;;;;;;;10616940;27;20094;-80
2023/06/30 07:38:18;;;;;;;4.25;3.22;;;;;;;;;;10597497;27;20088;-81
2023/06/30 07:43:19;;;;;;;4.78;3.97;;;;;;;;;;10615867;27;20023;-81
2023/06/30 07:48:20;;;;;;;7.93;4.55;;;;;;;;;;10615595;27;20059;-80
2023/06/30 07:53:21;;;;;;;7.70;4.40;;;;;;;;;;10615524;27;20023;-81
2023/06/30 07:58:22;;;;;;;8.77;4.95;;;;;;;;;;10615367;27;20035;-81
2023/06/30 08:03:23;;;;;;;11.00;4.53;;;;;;;;;;10615763;27;20389;-80
2023/06/30 08:08:24;;;;;;;8.75;4.28;;;;;;;;;;10615987;27;20023;-80
2023/06/30 08:13:26;;;;;;;6.05;4.05;;;;;;;;;;10614595;27;20044;-80
2023/06/30 08:18:28;;;;;;;8.30;5.68;;;;;;;;;;10588416;27;20134;-81
2023/06/30 08:23:29;;;;;;;9.48;5.60;;;;;;;;;;10614396;27;20621;-80
2023/06/30 08:28:30;;;;;;;6.78;4.50;;;;;;;;;;10615020;27;20023;-80
2023/06/30 08:33:31;;;;;;;9.02;4.30;;;;;;;;;;10595747;27;20023;-80
2023/06/30 08:38:32;;;;;;;7.18;3.88;;;;;;;;;;10613621;27;20051;-81
2023/06/30 08:43:37;;;;;;;5.88;3.50;;;;;;;;;;10614206;28;20034;-80
2023/06/30 08:48:39;;;;;;;7.35;3.72;;;;;;;;;;10614508;27;20047;-80
2023/06/30 08:53:40;;;;;;;10.15;3.65;;;;;;;;;;10613885;28;20020;-80
2023/06/30 08:58:41;;;;;;;8.50;3.15;;;;;;;;;;10595042;27;20035;-81
2023/06/30 09:03:42;;;;;;;7.03;3.47;;;;;;;;;;10613542;28;20072;-81
2023/06/30 09:09:06;;;;;;;5.55;3.60;;;;;;;;;;10613706;27;20031;-81
2023/06/30 09:14:08;;;;;;;5.30;3.00;;;;;;;;;;10600360;28;20038;-80
2023/06/30 09:19:09;;;;;;;8.15;3.10;;;;;;;;;;10613601;28;20063;-81
2023/06/30 09:24:10;;;;;;;7.10;3.05;;;;;;;;;;10613551;27;20076;-81
2023/06/30 09:29:12;;;;;;;3.78;2.90;;;;;;;;;;10621872;27;20028;-81
2023/06/30 09:34:14;;;;;;;30.70;20.73;;;;;;;;;;10621873;27;20057;-81
2023/06/30 09:39:15;;;;;;;4.05;2.95;;;;;;;;;;10620995;27;20611;-80
2023/06/30 09:44:20;;;;;;;9.23;6.53;;;;;;;;;;10620635;27;20028;-81
2023/06/30 09:49:24;;;;;;;8.80;3.50;;;;;;;;;;10620455;27;20059;-81
2023/06/30 09:54:25;;;;;;;;;;;;;;;;;;10620833;27;20023;-80
2023/06/30 09:59:27;;;;;;;8.10;5.55;;;;;;;;;;10620274;27;20410;-81
2023/06/30 10:04:29;;;;;;;6.35;4.47;;;;;;;;;;10620487;27;20025;-80
2023/06/30 10:09:31;;;;;;;6.72;3.60;;;;;;;;;;10619531;27;20038;-80
2023/06/30 10:14:33;;;;;;;15.90;10.38;;;;;;;;;;10619618;27;20027;-81
2023/06/30 10:19:35;;;;;;;6.10;3.60;;;;;;;;;;10619515;27;20039;-80
2023/06/30 10:24:37;;;;;;;4.63;3.15;;;;;;;;;;10618779;27;20084;-81
2023/06/30 10:29:39;;;;;;;5.68;4.28;;;;;;;;;;10619133;27;20471;-80
2023/06/30 10:34:40;;;;;;;8.65;4.63;;;;;;;;;;10618770;27;20473;-81
2023/06/30 10:39:43;;;;;;;5.90;3.47;;;;;;;;;;10618961;27;20041;-81
2023/06/30 10:44:44;;;;;;;7.47;3.78;;;;;;;;;;10618380;27;20123;-81
2023/06/30 10:49:45;;;;;;;7.18;3.17;;;;;;;;;;10617922;27;20062;-80
2023/06/30 10:54:52;;;;;;;6.00;2.85;;;;;;;;;;10618447;27;20015;-80
2023/06/30 11:00:10;;;;;;;6.45;3.78;;;;;;;;;;10617430;27;20027;-80
2023/06/30 11:05:20;;;;;;;4.57;2.67;;;;;;;;;;10617902;27;20037;-81
2023/06/30 11:10:28;;;;;;;3.22;2.50;;;;;;;;;;10603532;27;20023;-80
2023/06/30 11:15:35;;;;;;;4.20;3.20;;;;;;;;;;10617712;27;20023;-81
2023/06/30 11:20:36;;;;;;;6.28;3.30;;;;;;;;;;10616575;27;20118;-81
2023/06/30 11:25:37;;;;;;;4.82;3.10;;;;;;;;;;10617050;27;20500;-81
2023/06/30 11:30:39;;;;;;;4.65;2.80;;;;;;;;;;10616752;27;20031;-80
2023/06/30 11:35:40;;;;;;;5.20;3.25;;;;;;;;;;10616481;27;20038;-81
2023/06/30 11:40:49;;;;;;;4.68;3.38;;;;;;;;;;10616372;27;20046;-81
2023/06/30 11:46:00;;;;;;;4.15;2.55;;;;;;;;;;10597535;27;20055;-80
2023/06/30 11:51:01;;;;;;;17.85;8.82;;;;;;;;;;10615724;27;20082;-81
2023/06/30 11:56:02;;;;;;;7.90;4.47;;;;;;;;;;10615721;27;20019;-81
2023/06/30 12:01:04;;;;;;;5.40;2.58;;;;;;;;;;10615828;27;20059;-81
2023/06/30 12:06:05;;;;;;;5.10;3.13;;;;;;;;;;10615858;27;20023;-80
2023/06/30 12:11:07;;;;;;;3.60;2.88;;;;;;;;;;10613635;27;20027;-79
2023/06/30 12:16:08;;;;;;;4.25;2.60;;;;;;;;;;10609367;27;20019;-82
2023/06/30 12:21:10;;;;;;;3.45;2.33;;;;;;;;;;10609805;27;20049;-81
2023/06/30 12:26:11;;;;;;;5.00;2.63;;;;;;;;;;10613999;27;20042;-81
2023/06/30 12:31:12;;;;;;;3.97;2.83;;;;;;;;;;10613764;27;20035;-81
2023/06/30 12:36:13;;;;;;;5.05;2.95;;;;;;;;;;10613981;27;20031;-81
2023/06/30 12:41:14;;;;;;;4.68;2.80;;;;;;;;;;10613648;27;20080;-81
2023/06/30 12:46:15;;;;;;;3.50;2.90;;;;;;;;;;10612696;28;20080;-81
2023/06/30 12:51:16;;;;;;;3.30;2.55;;;;;;;;;;10607728;27;20371;-81
2023/06/30 12:56:17;;;;;;;3.67;2.30;;;;;;;;;;10612604;28;20068;-79
2023/06/30 13:01:18;;;;;;;4.20;2.55;;;;;;;;;;10557861;22;20111;-81
2023/06/30 13:06:19;;;;;;;3.42;2.25;;;;;;;;;;10495496;28;20074;-80
2023/06/30 13:11:23;;;;;;;8.05;2.78;;;;;;;;;;10494960;28;20062;-80
2023/06/30 13:16:24;;;;;;;5.38;2.95;;;;;;;;;;10494989;28;20060;-80
2023/06/30 13:21:25;;;;;;;4.18;2.45;;;;;;;;;;10494559;28;20044;-80
2023/06/30 13:26:26;;;;;;;2.60;2.30;;;;;;;;;;10495683;28;20078;-80
2023/06/30 13:31:27;;;;;;;2.92;2.60;;;;;;;;;;10485545;28;20029;-81
2023/06/30 13:36:29;;;;;;;3.30;2.35;;;;;;;;;;10493758;28;20433;-81
2023/06/30 13:41:31;;;;;;;4.38;3.08;;;;;;;;;;10490327;28;20032;-81
2023/06/30 13:46:32;;;;;;;5.57;3.55;;;;;;;;;;10486593;28;20029;-82
2023/06/30 13:51:33;;;;;;;6.50;3.80;;;;;;;;;;10482759;28;20025;-81
2023/06/30 13:56:34;;;;;;;9.35;4.95;;;;;;;;;;10492381;28;20043;-79
2023/06/30 14:01:35;;;;;;;9.63;6.28;;;;;;;;;;10492911;28;20372;-80
2023/06/30 14:06:36;;;;;;;10.00;5.50;;;;;;;;;;10488521;28;20020;-80
2023/06/30 14:11:37;;;;;;;7.22;4.75;;;;;;;;;;10492700;28;20036;-80
2023/06/30 14:16:38;;;;;;;9.02;3.65;;;;;;;;;;10479229;28;20029;-81
2023/06/30 14:21:39;;;;;;;3.72;2.65;;;;;;;;;;10488839;28;20113;-80
2023/06/30 14:26:40;;;;;;;4.35;2.85;;;;;;;;;;10483975;28;20037;-81
2023/06/30 14:31:41;;;;;;;6.18;3.08;;;;;;;;;;10490338;28;20025;-80
2023/06/30 14:36:43;;;;;;;3.78;3.05;;;;;;;;;;10487760;28;20066;-80
2023/06/30 14:41:44;;;;;;;4.78;3.10;;;;;;;;;;10491233;28;20037;-80
2023/06/30 14:46:45;;;;;;;3.80;2.80;;;;;;;;;;10489299;28;20107;-80
2023/06/30 14:51:47;;;;;;;3.90;2.90;;;;;;;;;;10467251;28;20020;-80
2023/06/30 14:56:48;;;;;;;6.78;3.40;;;;;;;;;;10490641;28;20669;-80
2023/06/30 15:01:49;;;;;;;6.55;3.30;;;;;;;;;;10489110;28;20136;-80
2023/06/30 15:06:50;;;;;;;5.78;3.90;;;;;;;;;;10484695;28;20024;-80
2023/06/30 15:11:51;;;;;;;6.85;4.10;;;;;;;;;;10485778;28;20788;-79
2023/06/30 15:16:52;;;;;;;5.40;3.80;;;;;;;;;;10488329;28;20033;-83
2023/06/30 15:21:53;;;;;;;6.95;3.90;;;;;;;;;;10488332;28;20032;-81
2023/06/30 15:26:54;;;;;;;79.68;44.92;;;;;;;;;;10489323;28;20121;-81
2023/06/30 15:31:55;;;;;;;36.17;20.67;;;;;;;;;;10476133;28;20032;-80
2023/06/30 15:36:56;;;;;;;53.03;30.10;;;;;;;;;;10488362;28;20028;-80
2023/06/30 15:41:57;;;;;;;28.20;17.65;;;;;;;;;;10483661;28;20032;-81
2023/06/30 15:47:00;;;;;;;23.85;13.73;;;;;;;;;;10485315;28;20054;-80
2023/06/30 15:52:01;;;;;;;23.80;13.77;;;;;;;;;;10487003;28;20077;-80
2023/06/30 15:57:02;;;;;;;8.30;5.35;;;;;;;;;;10486206;28;20029;-80
2023/06/30 16:02:03;;;;;;;8.80;6.00;;;;;;;;;;10489073;28;20064;-81
2023/06/30 16:07:04;;;;;;;5.25;4.00;;;;;;;;;;10488502;28;20055;-80
2023/06/30 16:12:06;;;;;;;5.82;4.40;;;;;;;;;;10488538;28;20403;-82
2023/06/30 16:17:07;;;;;;;6.47;4.15;;;;;;;;;;10468559;28;20032;-80
2023/06/30 16:22:08;;;;;;;7.30;3.10;;;;;;;;;;10487639;28;20033;-81
2023/06/30 16:27:09;;;;;;;4.05;2.35;;;;;;;;;;10485616;28;20033;-80
2023/06/30 16:32:10;;;;;;;3.92;2.80;;;;;;;;;;10465124;28;20153;-81
2023/06/30 16:37:11;;;;;;;3.35;2.20;;;;;;;;;;10486227;28;20042;-82
2023/06/30 16:42:12;;;;;;;8.85;4.60;;;;;;;;;;10486863;28;20530;-82
2023/06/30 16:47:13;;;;;;;4.70;2.70;;;;;;;;;;10482518;28;20041;-81
2023/06/30 16:52:14;;;;;;;6.55;4.10;;;;;;;;;;10500985;28;20167;-83
2023/06/30 16:57:15;;;;;;;4.53;3.28;;;;;;;;;;10486841;28;20149;-81
2023/06/30 17:02:16;;;;;;;6.47;4.25;;;;;;;;;;10487094;28;20415;-81
2023/06/30 17:07:18;;;;;;;4.72;2.97;;;;;;;;;;10487963;28;20025;-80
2023/06/30 17:12:19;;;;;;;3.92;2.88;;;;;;;;;;10485881;28;20028;-81
2023/06/30 17:17:20;;;;;;;3.75;3.08;;;;;;;;;;10485377;28;20101;-81
2023/06/30 17:22:21;;;;;;;4.18;2.97;;;;;;;;;;10486211;28;20055;-81
2023/06/30 17:27:22;;;;;;;4.75;2.95;;;;;;;;;;10485806;28;20024;-80
2023/06/30 17:32:23;;;;;;;3.88;2.80;;;;;;;;;;10486517;28;20482;-79
2023/06/30 17:37:24;;;;;;;3.92;3.05;;;;;;;;;;10488087;28;20024;-81
2023/06/30 17:42:25;;;;;;;3.50;2.97;;;;;;;;;;10487237;28;20037;-82
2023/06/30 17:47:26;;;;;;;4.55;3.10;;;;;;;;;;10490839;28;20483;-81
2023/06/30 17:52:27;;;;;;;5.85;3.50;;;;;;;;;;10493808;28;20530;-80
2023/06/30 17:57:28;;;;;;;5.20;2.97;;;;;;;;;;10494446;28;20150;-80
2023/06/30 18:02:29;;;;;;;5.60;3.53;;;;;;;;;;10493446;28;20051;-80
2023/06/30 18:07:30;;;;;;;3.53;3.20;;;;;;;;;;10493642;28;20483;-80
2023/06/30 18:12:31;;;;;;;4.28;3.45;;;;;;;;;;10493296;28;20037;-81
2023/06/30 18:17:32;;;;;;;5.53;3.83;;;;;;;;;;10492369;28;20025;-81
2023/06/30 18:22:33;;;;;;;5.05;3.25;;;;;;;;;;10492773;28;20098;-82
2023/06/30 18:27:34;;;;;;;4.85;3.75;;;;;;;;;;10484821;28;20061;-81
2023/06/30 18:32:35;;;;;;;4.70;4.20;;;;;;;;;;10492970;28;20032;-80
2023/06/30 18:37:36;;;;;;;6.60;3.90;;;;;;;;;;10492714;28;20082;-81
2023/06/30 18:42:37;;;;;;;4.80;4.38;;;;;;;;;;10492242;28;20609;-81
2023/06/30 18:47:38;;;;;;;6.55;4.00;;;;;;;;;;10491046;28;20029;-80
2023/06/30 18:52:40;;;;;;;6.45;4.07;;;;;;;;;;10491825;28;20102;-80
2023/06/30 18:57:41;;;;;;;5.28;4.38;;;;;;;;;;10491797;28;20024;-81
2023/06/30 19:02:42;;;;;;;6.65;4.50;;;;;;;;;;10491238;28;20049;-82
2023/06/30 19:07:43;;;;;;;6.15;4.80;;;;;;;;;;10489972;28;20027;-81
2023/06/30 19:12:44;;;;;;;5.22;4.03;;;;;;;;;;10490044;28;20479;-81
2023/06/30 19:17:45;;;;;;;6.07;4.43;;;;;;;;;;10490663;28;20028;-81
2023/06/30 19:22:46;;;;;;;7.57;4.88;;;;;;;;;;10490662;28;20430;-81
2023/06/30 19:27:47;;;;;;;5.63;3.72;;;;;;;;;;10490207;28;20052;-81
2023/06/30 19:32:48;;;;;;;6.60;3.85;;;;;;;;;;10490269;28;20017;-81
2023/06/30 19:37:49;;;;;;;5.82;3.80;;;;;;;;;;10490149;28;20035;-81
2023/06/30 19:42:51;;;;;;;6.00;3.83;;;;;;;;;;10489793;28;20034;-81
2023/06/30 19:47:52;;;;;;;4.70;3.80;;;;;;;;;;10489906;28;20021;-83
2023/06/30 19:52:53;;;;;;;5.55;3.42;;;;;;;;;;10487746;28;20499;-81
2023/06/30 19:57:54;;;;;;;4.60;3.83;;;;;;;;;;10489017;28;20024;-80
2023/06/30 20:02:55;;;;;;;3.58;3.28;;;;;;;;;;10489996;28;20510;-80
2023/06/30 20:07:56;;;;;;;4.75;3.70;;;;;;;;;;10488281;28;20017;-83
2023/06/30 20:12:57;;;;;;;4.78;4.32;;;;;;;;;;10489152;28;20380;-83
2023/06/30 20:17:58;;;;;;;4.10;3.70;;;;;;;;;;10486902;28;20054;-81
2023/06/30 20:23:00;;;;;;;5.07;3.50;;;;;;;;;;10488656;28;20523;-81
2023/06/30 20:28:01;;;;;;;4.57;3.95;;;;;;;;;;10488515;28;20116;-81
2023/06/30 20:33:03;;;;;;;6.82;3.65;;;;;;;;;;10486473;28;20791;-82
2023/06/30 20:38:04;;;;;;;4.88;4.00;;;;;;;;;;10488118;28;20107;-81
2023/06/30 20:43:05;;;;;;;5.35;4.05;;;;;;;;;;10487665;28;20109;-81
2023/06/30 20:48:06;;;;;;;5.65;4.53;;;;;;;;;;10488381;28;20103;-82
2023/06/30 20:53:08;;;;;;;5.32;3.97;;;;;;;;;;10486849;28;20560;-80
2023/06/30 20:58:09;;;;;;;4.93;3.70;;;;;;;;;;10485807;28;20066;-82
2023/06/30 21:03:10;;;;;;;9.45;4.05;;;;;;;;;;10486185;28;20044;-83
2023/06/30 21:08:11;;;;;;;5.35;4.50;;;;;;;;;;10487459;28;20512;-81
2023/06/30 21:13:12;;;;;;;5.00;4.05;;;;;;;;;;10487420;28;20047;-82
2023/06/30 21:18:13;;;;;;;6.97;5.30;;;;;;;;;;10485884;28;20033;-81
2023/06/30 21:23:14;;;;;;;5.28;4.45;;;;;;;;;;10492430;28;20483;-81
2023/06/30 21:28:15;;;;;;;4.90;4.40;;;;;;;;;;10494306;28;20102;-81
2023/06/30 21:33:16;;;;;;;6.95;4.78;;;;;;;;;;10495047;28;20033;-80
2023/06/30 21:38:18;;;;;;;9.15;5.22;;;;;;;;;;10494575;28;20033;-81
2023/06/30 21:43:19;;;;;;;6.60;5.40;;;;;;;;;;10494517;28;20543;-81
2023/06/30 21:48:20;;;;;;;5.68;5.03;;;;;;;;;;10495219;28;20173;-81
2023/06/30 21:53:21;;;;;;;6.30;5.18;;;;;;;;;;10489802;28;20122;-80
2023/06/30 21:58:21;;;;;;;6.28;5.25;;;;;;;;;;10492162;28;20040;-81
2023/06/30 22:03:23;;;;;;;6.32;5.72;;;;;;;;;;10493825;28;20033;-81
2023/06/30 22:08:25;;;;;;;7.15;5.80;;;;;;;;;;10493546;28;20024;-82
2023/06/30 22:13:26;;;;;;;6.45;5.95;;;;;;;;;;10493660;28;20032;-81
2023/06/30 22:18:27;;;;;;;7.45;6.65;;;;;;;;;;10492865;28;20108;-80
2023/06/30 22:23:28;;;;;;;10.13;7.95;;;;;;;;;;10491551;28;20036;-81
2023/06/30 22:28:29;;;;;;;9.23;8.32;;;;;;;;;;10493374;28;20384;-83
2023/06/30 22:33:30;;;;;;;9.85;8.90;;;;;;;;;;10492234;28;20032;-81
2023/06/30 22:38:31;;;;;;;12.40;9.95;;;;;;;;;;10492025;28;20032;-80
2023/06/30 22:43:32;;;;;;;12.57;10.73;;;;;;;;;;10492137;28;20169;-81
2023/06/30 22:48:33;;;;;;;13.73;11.27;;;;;;;;;;10489986;28;20101;-83
2023/06/30 22:53:34;;;;;;;16.48;11.95;;;;;;;;;;10492309;28;20040;-81
2023/06/30 22:58:35;;;;;;;13.48;11.57;;;;;;;;;;10491510;28;20048;-81
2023/06/30 23:03:36;;;;;;;14.02;12.55;;;;;;;;;;10492059;28;20387;-82
2023/06/30 23:08:37;;;;;;;16.58;13.80;;;;;;;;;;10490674;28;20031;-82
2023/06/30 23:13:39;;;;;;;13.02;11.52;;;;;;;;;;10491181;28;20029;-81
2023/06/30 23:18:40;;;;;;;15.90;13.68;;;;;;;;;;10490727;28;20039;-81
2023/06/30 23:23:41;;;;;;;20.05;13.18;;;;;;;;;;10490234;28;20424;-81
2023/06/30 23:28:45;;;;;;;15.73;12.73;;;;;;;;;;10490053;28;20024;-81
2023/06/30 23:33:50;;;;;;;16.25;13.35;;;;;;;;;;10490084;28;20052;-83
2023/06/30 23:38:51;;;;;;;14.48;12.82;;;;;;;;;;10490249;28;20032;-81
2023/06/30 23:43:53;;;;;;;16.63;14.57;;;;;;;;;;10490413;28;20822;-82
2023/06/30 23:48:54;;;;;;;15.20;13.57;;;;;;;;;;10489161;28;20471;-83
2023/06/30 23:53:55;;;;;;;16.92;15.00;;;;;;;;;;10489447;28;20078;-81
2023/06/30 23:58:56;;;;;;;16.60;14.70;;;;;;;;;;10488856;28;20055;-83
